sensor_id;sensor_type;location;lat;lon;timestamp;P1;durP1;ratioP1;P2;durP2;ratioP2
17488;SDS011;8861;52.644;4.734;2024-03-25T00:01:10;7.17;;;2.53;;
17488;SDS011;8861;52.644;4.734;2024-03-25T00:03:36;10.13;;;2.90;;
17488;SDS011;8861;52.644;4.734;2024-03-25T00:06:05;11.63;;;3.07;;
17488;SDS011;8861;52.644;4.734;2024-03-25T00:08:31;13.93;;;3.20;;
17488;SDS011;8861;52.644;4.734;2024-03-25T00:10:58;16.43;;;3.47;;
17488;SDS011;8861;52.644;4.734;2024-03-25T00:13:24;14.67;;;3.00;;
17488;SDS011;8861;52.644;4.734;2024-03-25T00:15:51;18.80;;;3.20;;
17488;SDS011;8861;52.644;4.734;2024-03-25T00:18:17;15.33;;;3.10;;
17488;SDS011;8861;52.644;4.734;2024-03-25T00:20:44;16.47;;;3.57;;
17488;SDS011;8861;52.644;4.734;2024-03-25T00:23:12;17.63;;;3.63;;
17488;SDS011;8861;52.644;4.734;2024-03-25T00:25:40;14.30;;;3.37;;
17488;SDS011;8861;52.644;4.734;2024-03-25T00:28:06;17.73;;;3.53;;
17488;SDS011;8861;52.644;4.734;2024-03-25T00:30:33;12.93;;;3.20;;
17488;SDS011;8861;52.644;4.734;2024-03-25T00:32:59;11.00;;;3.00;;
17488;SDS011;8861;52.644;4.734;2024-03-25T00:35:26;16.20;;;3.20;;
17488;SDS011;8861;52.644;4.734;2024-03-25T00:37:52;11.70;;;2.87;;
17488;SDS011;8861;52.644;4.734;2024-03-25T00:40:21;11.10;;;2.50;;
17488;SDS011;8861;52.644;4.734;2024-03-25T00:42:47;7.37;;;2.77;;
17488;SDS011;8861;52.644;4.734;2024-03-25T00:45:14;5.00;;;2.13;;
17488;SDS011;8861;52.644;4.734;2024-03-25T00:47:41;7.90;;;2.30;;
17488;SDS011;8861;52.644;4.734;2024-03-25T00:50:08;8.47;;;2.73;;
17488;SDS011;8861;52.644;4.734;2024-03-25T00:52:35;7.77;;;2.10;;
17488;SDS011;8861;52.644;4.734;2024-03-25T00:55:02;7.77;;;2.27;;
17488;SDS011;8861;52.644;4.734;2024-03-25T00:57:29;10.63;;;2.53;;
17488;SDS011;8861;52.644;4.734;2024-03-25T00:59:57;11.77;;;2.73;;
17488;SDS011;8861;52.644;4.734;2024-03-25T01:02:23;15.20;;;3.17;;
17488;SDS011;8861;52.644;4.734;2024-03-25T01:04:52;15.00;;;3.10;;
17488;SDS011;8861;52.644;4.734;2024-03-25T01:07:19;9.50;;;2.50;;
17488;SDS011;8861;52.644;4.734;2024-03-25T01:09:46;13.30;;;3.27;;
17488;SDS011;8861;52.644;4.734;2024-03-25T01:12:12;11.17;;;2.90;;
17488;SDS011;8861;52.644;4.734;2024-03-25T01:14:41;8.93;;;2.67;;
17488;SDS011;8861;52.644;4.734;2024-03-25T01:17:07;9.87;;;2.63;;
17488;SDS011;8861;52.644;4.734;2024-03-25T01:19:34;8.40;;;2.50;;
17488;SDS011;8861;52.644;4.734;2024-03-25T01:22:00;9.67;;;2.60;;
17488;SDS011;8861;52.644;4.734;2024-03-25T01:24:27;12.87;;;3.00;;
17488;SDS011;8861;52.644;4.734;2024-03-25T01:26:53;7.13;;;2.37;;
17488;SDS011;8861;52.644;4.734;2024-03-25T01:29:20;7.10;;;2.43;;
17488;SDS011;8861;52.644;4.734;2024-03-25T01:31:48;4.67;;;2.10;;
17488;SDS011;8861;52.644;4.734;2024-03-25T01:34:15;5.30;;;2.10;;
17488;SDS011;8861;52.644;4.734;2024-03-25T01:36:41;5.43;;;2.00;;
17488;SDS011;8861;52.644;4.734;2024-03-25T01:39:08;13.83;;;2.97;;
17488;SDS011;8861;52.644;4.734;2024-03-25T01:41:34;17.53;;;3.27;;
17488;SDS011;8861;52.644;4.734;2024-03-25T01:44:01;13.23;;;3.27;;
17488;SDS011;8861;52.644;4.734;2024-03-25T01:46:27;9.37;;;3.10;;
17488;SDS011;8861;52.644;4.734;2024-03-25T01:48:56;8.37;;;2.43;;
17488;SDS011;8861;52.644;4.734;2024-03-25T01:51:23;9.37;;;2.50;;
17488;SDS011;8861;52.644;4.734;2024-03-25T01:53:51;11.83;;;2.47;;
17488;SDS011;8861;52.644;4.734;2024-03-25T01:56:18;9.77;;;2.57;;
17488;SDS011;8861;52.644;4.734;2024-03-25T01:58:47;8.17;;;2.30;;
17488;SDS011;8861;52.644;4.734;2024-03-25T02:01:13;8.90;;;2.50;;
17488;SDS011;8861;52.644;4.734;2024-03-25T02:03:41;8.13;;;2.47;;
17488;SDS011;8861;52.644;4.734;2024-03-25T02:06:10;7.83;;;2.30;;
17488;SDS011;8861;52.644;4.734;2024-03-25T02:08:40;10.30;;;2.70;;
17488;SDS011;8861;52.644;4.734;2024-03-25T02:11:06;7.97;;;2.43;;
17488;SDS011;8861;52.644;4.734;2024-03-25T02:13:34;9.47;;;2.27;;
17488;SDS011;8861;52.644;4.734;2024-03-25T02:16:01;9.70;;;2.60;;
17488;SDS011;8861;52.644;4.734;2024-03-25T02:18:28;12.13;;;2.60;;
17488;SDS011;8861;52.644;4.734;2024-03-25T02:20:55;9.30;;;2.50;;
17488;SDS011;8861;52.644;4.734;2024-03-25T02:23:25;8.47;;;2.40;;
17488;SDS011;8861;52.644;4.734;2024-03-25T02:25:53;6.97;;;2.40;;
17488;SDS011;8861;52.644;4.734;2024-03-25T02:28:20;12.00;;;2.70;;
17488;SDS011;8861;52.644;4.734;2024-03-25T02:30:46;6.97;;;2.20;;
17488;SDS011;8861;52.644;4.734;2024-03-25T02:33:14;10.10;;;2.20;;
17488;SDS011;8861;52.644;4.734;2024-03-25T02:35:40;7.67;;;2.10;;
17488;SDS011;8861;52.644;4.734;2024-03-25T02:38:08;9.17;;;2.33;;
17488;SDS011;8861;52.644;4.734;2024-03-25T02:40:35;9.10;;;2.33;;
17488;SDS011;8861;52.644;4.734;2024-03-25T02:43:04;5.20;;;2.00;;
17488;SDS011;8861;52.644;4.734;2024-03-25T02:45:32;6.37;;;2.07;;
17488;SDS011;8861;52.644;4.734;2024-03-25T02:47:59;4.20;;;1.87;;
17488;SDS011;8861;52.644;4.734;2024-03-25T02:50:25;5.80;;;1.80;;
17488;SDS011;8861;52.644;4.734;2024-03-25T02:52:52;4.00;;;1.50;;
17488;SDS011;8861;52.644;4.734;2024-03-25T02:55:18;4.30;;;1.87;;
17488;SDS011;8861;52.644;4.734;2024-03-25T02:57:45;3.27;;;1.60;;
17488;SDS011;8861;52.644;4.734;2024-03-25T03:00:14;4.00;;;1.60;;
17488;SDS011;8861;52.644;4.734;2024-03-25T03:02:41;9.60;;;2.40;;
17488;SDS011;8861;52.644;4.734;2024-03-25T03:05:07;6.03;;;1.93;;
17488;SDS011;8861;52.644;4.734;2024-03-25T03:07:34;8.83;;;2.03;;
17488;SDS011;8861;52.644;4.734;2024-03-25T03:10:00;10.40;;;2.47;;
17488;SDS011;8861;52.644;4.734;2024-03-25T03:12:27;10.80;;;2.30;;
17488;SDS011;8861;52.644;4.734;2024-03-25T03:14:53;9.07;;;2.53;;
17488;SDS011;8861;52.644;4.734;2024-03-25T03:17:21;8.93;;;2.20;;
17488;SDS011;8861;52.644;4.734;2024-03-25T03:19:47;4.83;;;2.00;;
17488;SDS011;8861;52.644;4.734;2024-03-25T03:22:14;7.87;;;1.90;;
17488;SDS011;8861;52.644;4.734;2024-03-25T03:24:40;10.33;;;2.60;;
17488;SDS011;8861;52.644;4.734;2024-03-25T03:27:07;13.03;;;2.40;;
17488;SDS011;8861;52.644;4.734;2024-03-25T03:29:33;15.83;;;2.87;;
17488;SDS011;8861;52.644;4.734;2024-03-25T03:32:00;11.90;;;2.33;;
17488;SDS011;8861;52.644;4.734;2024-03-25T03:34:28;8.67;;;2.53;;
17488;SDS011;8861;52.644;4.734;2024-03-25T03:36:55;13.50;;;2.37;;
17488;SDS011;8861;52.644;4.734;2024-03-25T03:39:21;8.07;;;2.47;;
17488;SDS011;8861;52.644;4.734;2024-03-25T03:41:48;10.47;;;2.40;;
17488;SDS011;8861;52.644;4.734;2024-03-25T03:44:14;8.43;;;2.20;;
17488;SDS011;8861;52.644;4.734;2024-03-25T03:46:41;6.07;;;1.90;;
17488;SDS011;8861;52.644;4.734;2024-03-25T03:49:07;3.73;;;1.67;;
17488;SDS011;8861;52.644;4.734;2024-03-25T03:51:35;4.20;;;1.80;;
17488;SDS011;8861;52.644;4.734;2024-03-25T03:54:01;4.23;;;1.70;;
17488;SDS011;8861;52.644;4.734;2024-03-25T03:56:28;3.30;;;1.60;;
17488;SDS011;8861;52.644;4.734;2024-03-25T03:58:54;3.33;;;1.40;;
17488;SDS011;8861;52.644;4.734;2024-03-25T04:01:21;3.73;;;1.50;;
17488;SDS011;8861;52.644;4.734;2024-03-25T04:03:47;3.03;;;1.70;;
17488;SDS011;8861;52.644;4.734;2024-03-25T04:06:15;2.43;;;1.63;;
17488;SDS011;8861;52.644;4.734;2024-03-25T04:08:42;1.67;;;1.23;;
17488;SDS011;8861;52.644;4.734;2024-03-25T04:11:09;2.57;;;1.33;;
17488;SDS011;8861;52.644;4.734;2024-03-25T04:13:35;1.33;;;1.17;;
17488;SDS011;8861;52.644;4.734;2024-03-25T04:16:04;1.97;;;1.30;;
17488;SDS011;8861;52.644;4.734;2024-03-25T04:18:31;2.13;;;1.30;;
17488;SDS011;8861;52.644;4.734;2024-03-25T04:20:59;1.40;;;1.30;;
17488;SDS011;8861;52.644;4.734;2024-03-25T04:23:25;2.73;;;1.33;;
17488;SDS011;8861;52.644;4.734;2024-03-25T04:25:54;1.30;;;1.20;;
17488;SDS011;8861;52.644;4.734;2024-03-25T04:28:20;2.20;;;1.20;;
17488;SDS011;8861;52.644;4.734;2024-03-25T04:30:51;1.20;;;1.07;;
17488;SDS011;8861;52.644;4.734;2024-03-25T04:33:18;1.47;;;1.30;;
17488;SDS011;8861;52.644;4.734;2024-03-25T04:35:45;1.27;;;1.17;;
17488;SDS011;8861;52.644;4.734;2024-03-25T04:38:11;1.10;;;1.10;;
17488;SDS011;8861;52.644;4.734;2024-03-25T04:40:38;1.63;;;1.23;;
17488;SDS011;8861;52.644;4.734;2024-03-25T04:43:06;1.27;;;1.17;;
17488;SDS011;8861;52.644;4.734;2024-03-25T04:45:32;1.67;;;1.20;;
17488;SDS011;8861;52.644;4.734;2024-03-25T04:47:58;1.87;;;1.00;;
17488;SDS011;8861;52.644;4.734;2024-03-25T04:50:27;1.70;;;1.40;;
17488;SDS011;8861;52.644;4.734;2024-03-25T04:52:54;2.13;;;1.10;;
17488;SDS011;8861;52.644;4.734;2024-03-25T04:55:19;1.37;;;1.10;;
17488;SDS011;8861;52.644;4.734;2024-03-25T04:57:46;1.50;;;1.20;;
17488;SDS011;8861;52.644;4.734;2024-03-25T05:00:14;1.60;;;1.40;;
17488;SDS011;8861;52.644;4.734;2024-03-25T05:02:40;1.33;;;1.27;;
17488;SDS011;8861;52.644;4.734;2024-03-25T05:05:06;1.63;;;1.20;;
17488;SDS011;8861;52.644;4.734;2024-03-25T05:07:32;1.43;;;1.20;;
17488;SDS011;8861;52.644;4.734;2024-03-25T05:09:59;1.20;;;1.10;;
17488;SDS011;8861;52.644;4.734;2024-03-25T05:12:25;1.30;;;1.20;;
17488;SDS011;8861;52.644;4.734;2024-03-25T05:14:51;2.37;;;1.27;;
17488;SDS011;8861;52.644;4.734;2024-03-25T05:17:19;1.50;;;1.20;;
17488;SDS011;8861;52.644;4.734;2024-03-25T05:19:45;1.40;;;1.10;;
17488;SDS011;8861;52.644;4.734;2024-03-25T05:22:11;2.47;;;1.30;;
17488;SDS011;8861;52.644;4.734;2024-03-25T05:24:38;1.83;;;1.30;;
17488;SDS011;8861;52.644;4.734;2024-03-25T05:27:04;1.40;;;1.30;;
17488;SDS011;8861;52.644;4.734;2024-03-25T05:29:30;1.33;;;1.23;;
17488;SDS011;8861;52.644;4.734;2024-03-25T05:31:57;1.43;;;1.20;;
17488;SDS011;8861;52.644;4.734;2024-03-25T05:34:26;1.30;;;1.20;;
17488;SDS011;8861;52.644;4.734;2024-03-25T05:36:53;1.57;;;1.30;;
17488;SDS011;8861;52.644;4.734;2024-03-25T05:39:19;1.67;;;1.23;;
17488;SDS011;8861;52.644;4.734;2024-03-25T05:41:45;2.20;;;1.37;;
17488;SDS011;8861;52.644;4.734;2024-03-25T05:44:12;1.73;;;1.13;;
17488;SDS011;8861;52.644;4.734;2024-03-25T05:46:38;1.53;;;1.40;;
17488;SDS011;8861;52.644;4.734;2024-03-25T05:49:04;1.50;;;1.40;;
17488;SDS011;8861;52.644;4.734;2024-03-25T05:51:32;1.50;;;1.40;;
17488;SDS011;8861;52.644;4.734;2024-03-25T05:53:59;2.30;;;1.20;;
17488;SDS011;8861;52.644;4.734;2024-03-25T05:56:25;2.00;;;1.40;;
17488;SDS011;8861;52.644;4.734;2024-03-25T05:58:51;1.70;;;1.30;;
17488;SDS011;8861;52.644;4.734;2024-03-25T06:01:18;1.97;;;1.70;;
17488;SDS011;8861;52.644;4.734;2024-03-25T06:03:44;1.70;;;1.40;;
17488;SDS011;8861;52.644;4.734;2024-03-25T06:06:10;1.40;;;1.30;;
17488;SDS011;8861;52.644;4.734;2024-03-25T06:08:38;1.40;;;1.20;;
17488;SDS011;8861;52.644;4.734;2024-03-25T06:11:04;1.50;;;1.27;;
17488;SDS011;8861;52.644;4.734;2024-03-25T06:13:30;1.90;;;1.50;;
17488;SDS011;8861;52.644;4.734;2024-03-25T06:15:56;2.30;;;1.40;;
17488;SDS011;8861;52.644;4.734;2024-03-25T06:18:23;1.43;;;1.33;;
17488;SDS011;8861;52.644;4.734;2024-03-25T06:20:49;1.97;;;1.50;;
17488;SDS011;8861;52.644;4.734;2024-03-25T06:23:22;1.43;;;1.33;;
17488;SDS011;8861;52.644;4.734;2024-03-25T06:25:51;1.37;;;1.27;;
17488;SDS011;8861;52.644;4.734;2024-03-25T06:28:18;1.53;;;1.40;;
17488;SDS011;8861;52.644;4.734;2024-03-25T06:30:44;1.60;;;1.50;;
17488;SDS011;8861;52.644;4.734;2024-03-25T06:33:29;1.40;;;1.30;;
17488;SDS011;8861;52.644;4.734;2024-03-25T06:36:14;1.60;;;1.50;;
17488;SDS011;8861;52.644;4.734;2024-03-25T06:38:40;4.90;;;1.70;;
17488;SDS011;8861;52.644;4.734;2024-03-25T06:41:08;4.73;;;2.00;;
17488;SDS011;8861;52.644;4.734;2024-03-25T06:43:34;2.30;;;1.80;;
17488;SDS011;8861;52.644;4.734;2024-03-25T06:46:01;2.90;;;1.80;;
17488;SDS011;8861;52.644;4.734;2024-03-25T06:48:27;3.63;;;1.70;;
17488;SDS011;8861;52.644;4.734;2024-03-25T06:50:53;1.83;;;1.67;;
17488;SDS011;8861;52.644;4.734;2024-03-25T06:53:20;1.83;;;1.50;;
17488;SDS011;8861;52.644;4.734;2024-03-25T06:55:53;5.20;;;1.90;;
17488;SDS011;8861;52.644;4.734;2024-03-25T06:58:22;7.67;;;2.27;;
17488;SDS011;8861;52.644;4.734;2024-03-25T07:00:49;5.73;;;2.30;;
17488;SDS011;8861;52.644;4.734;2024-03-25T07:03:16;6.27;;;2.10;;
17488;SDS011;8861;52.644;4.734;2024-03-25T07:05:44;6.50;;;2.40;;
17488;SDS011;8861;52.644;4.734;2024-03-25T07:08:11;3.00;;;1.77;;
17488;SDS011;8861;52.644;4.734;2024-03-25T07:10:37;3.33;;;1.97;;
17488;SDS011;8861;52.644;4.734;2024-03-25T07:13:03;4.53;;;2.20;;
17488;SDS011;8861;52.644;4.734;2024-03-25T07:15:32;3.73;;;1.80;;
17488;SDS011;8861;52.644;4.734;2024-03-25T07:17:58;3.23;;;1.97;;
17488;SDS011;8861;52.644;4.734;2024-03-25T07:20:24;4.03;;;1.70;;
17488;SDS011;8861;52.644;4.734;2024-03-25T07:22:50;3.43;;;1.70;;
17488;SDS011;8861;52.644;4.734;2024-03-25T07:25:17;4.83;;;1.80;;
17488;SDS011;8861;52.644;4.734;2024-03-25T07:27:43;3.03;;;1.83;;
17488;SDS011;8861;52.644;4.734;2024-03-25T07:30:09;3.73;;;2.17;;
17488;SDS011;8861;52.644;4.734;2024-03-25T07:32:37;4.23;;;2.17;;
17488;SDS011;8861;52.644;4.734;2024-03-25T07:35:04;9.13;;;2.63;;
17488;SDS011;8861;52.644;4.734;2024-03-25T07:37:31;8.17;;;2.60;;
17488;SDS011;8861;52.644;4.734;2024-03-25T07:39:57;4.60;;;1.87;;
17488;SDS011;8861;52.644;4.734;2024-03-25T07:42:23;5.73;;;2.57;;
17488;SDS011;8861;52.644;4.734;2024-03-25T07:44:49;7.73;;;2.60;;
17488;SDS011;8861;52.644;4.734;2024-03-25T07:47:15;6.63;;;2.80;;
17488;SDS011;8861;52.644;4.734;2024-03-25T07:49:42;6.93;;;2.50;;
17488;SDS011;8861;52.644;4.734;2024-03-25T07:52:08;10.50;;;2.90;;
17488;SDS011;8861;52.644;4.734;2024-03-25T07:54:34;7.43;;;2.73;;
17488;SDS011;8861;52.644;4.734;2024-03-25T07:57:00;11.13;;;2.83;;
17488;SDS011;8861;52.644;4.734;2024-03-25T07:59:26;12.97;;;3.07;;
17488;SDS011;8861;52.644;4.734;2024-03-25T08:01:52;9.03;;;2.70;;
17488;SDS011;8861;52.644;4.734;2024-03-25T08:04:19;7.60;;;2.57;;
17488;SDS011;8861;52.644;4.734;2024-03-25T08:06:46;8.23;;;2.73;;
17488;SDS011;8861;52.644;4.734;2024-03-25T08:09:12;6.17;;;2.20;;
17488;SDS011;8861;52.644;4.734;2024-03-25T08:11:38;6.93;;;2.27;;
17488;SDS011;8861;52.644;4.734;2024-03-25T08:14:05;5.90;;;2.40;;
17488;SDS011;8861;52.644;4.734;2024-03-25T08:16:31;11.00;;;3.07;;
17488;SDS011;8861;52.644;4.734;2024-03-25T08:18:57;6.47;;;2.57;;
17488;SDS011;8861;52.644;4.734;2024-03-25T08:21:23;6.20;;;2.53;;
17488;SDS011;8861;52.644;4.734;2024-03-25T08:23:52;8.70;;;2.50;;
17488;SDS011;8861;52.644;4.734;2024-03-25T08:26:18;5.80;;;2.23;;
17488;SDS011;8861;52.644;4.734;2024-03-25T08:28:44;4.90;;;2.30;;
17488;SDS011;8861;52.644;4.734;2024-03-25T08:31:10;4.83;;;2.50;;
17488;SDS011;8861;52.644;4.734;2024-03-25T08:33:36;7.60;;;2.47;;
17488;SDS011;8861;52.644;4.734;2024-03-25T08:36:02;7.30;;;3.13;;
17488;SDS011;8861;52.644;4.734;2024-03-25T08:38:29;4.33;;;2.23;;
17488;SDS011;8861;52.644;4.734;2024-03-25T08:40:56;6.30;;;2.80;;
17488;SDS011;8861;52.644;4.734;2024-03-25T08:43:22;7.67;;;2.80;;
17488;SDS011;8861;52.644;4.734;2024-03-25T08:45:49;7.77;;;2.93;;
17488;SDS011;8861;52.644;4.734;2024-03-25T08:48:17;9.23;;;3.20;;
17488;SDS011;8861;52.644;4.734;2024-03-25T08:50:44;12.13;;;4.10;;
17488;SDS011;8861;52.644;4.734;2024-03-25T08:53:10;11.03;;;3.77;;
17488;SDS011;8861;52.644;4.734;2024-03-25T08:55:36;11.93;;;3.70;;
17488;SDS011;8861;52.644;4.734;2024-03-25T08:58:04;12.93;;;4.00;;
17488;SDS011;8861;52.644;4.734;2024-03-25T09:00:30;11.43;;;3.63;;
17488;SDS011;8861;52.644;4.734;2024-03-25T09:02:56;8.37;;;3.40;;
17488;SDS011;8861;52.644;4.734;2024-03-25T09:05:23;8.47;;;3.20;;
17488;SDS011;8861;52.644;4.734;2024-03-25T09:07:49;7.90;;;3.30;;
17488;SDS011;8861;52.644;4.734;2024-03-25T09:10:15;12.30;;;3.80;;
17488;SDS011;8861;52.644;4.734;2024-03-25T09:13:00;8.93;;;3.40;;
17488;SDS011;8861;52.644;4.734;2024-03-25T09:15:27;7.93;;;3.07;;
17488;SDS011;8861;52.644;4.734;2024-03-25T09:17:55;6.73;;;3.03;;
17488;SDS011;8861;52.644;4.734;2024-03-25T09:20:22;4.93;;;2.77;;
17488;SDS011;8861;52.644;4.734;2024-03-25T09:22:48;8.80;;;3.03;;
17488;SDS011;8861;52.644;4.734;2024-03-25T09:25:14;6.77;;;3.03;;
17488;SDS011;8861;52.644;4.734;2024-03-25T09:27:45;11.40;;;3.40;;
17488;SDS011;8861;52.644;4.734;2024-03-25T09:30:11;9.40;;;3.40;;
17488;SDS011;8861;52.644;4.734;2024-03-25T09:32:39;8.53;;;3.00;;
17488;SDS011;8861;52.644;4.734;2024-03-25T09:35:06;9.00;;;3.03;;
17488;SDS011;8861;52.644;4.734;2024-03-25T09:37:32;7.03;;;2.80;;
17488;SDS011;8861;52.644;4.734;2024-03-25T09:39:58;8.27;;;3.20;;
17488;SDS011;8861;52.644;4.734;2024-03-25T09:42:25;6.90;;;2.90;;
17488;SDS011;8861;52.644;4.734;2024-03-25T09:44:53;5.33;;;2.50;;
17488;SDS011;8861;52.644;4.734;2024-03-25T09:47:20;4.50;;;2.70;;
17488;SDS011;8861;52.644;4.734;2024-03-25T09:49:48;5.23;;;2.67;;
17488;SDS011;8861;52.644;4.734;2024-03-25T09:52:14;7.00;;;2.70;;
17488;SDS011;8861;52.644;4.734;2024-03-25T09:54:41;15.13;;;4.00;;
17488;SDS011;8861;52.644;4.734;2024-03-25T09:57:07;10.50;;;3.60;;
17488;SDS011;8861;52.644;4.734;2024-03-25T09:59:33;7.40;;;2.90;;
17488;SDS011;8861;52.644;4.734;2024-03-25T10:02:00;6.43;;;2.80;;
17488;SDS011;8861;52.644;4.734;2024-03-25T10:04:27;7.00;;;2.87;;
17488;SDS011;8861;52.644;4.734;2024-03-25T10:06:55;7.80;;;3.07;;
17488;SDS011;8861;52.644;4.734;2024-03-25T10:09:21;6.10;;;2.90;;
17488;SDS011;8861;52.644;4.734;2024-03-25T10:11:48;5.47;;;3.03;;
17488;SDS011;8861;52.644;4.734;2024-03-25T10:14:14;4.83;;;2.77;;
17488;SDS011;8861;52.644;4.734;2024-03-25T10:16:41;7.40;;;3.27;;
17488;SDS011;8861;52.644;4.734;2024-03-25T10:19:07;6.47;;;3.23;;
17488;SDS011;8861;52.644;4.734;2024-03-25T10:21:33;6.87;;;4.10;;
17488;SDS011;8861;52.644;4.734;2024-03-25T10:24:01;6.97;;;3.87;;
17488;SDS011;8861;52.644;4.734;2024-03-25T10:26:30;5.93;;;3.43;;
17488;SDS011;8861;52.644;4.734;2024-03-25T10:29:00;9.27;;;4.17;;
17488;SDS011;8861;52.644;4.734;2024-03-25T10:31:27;4.40;;;3.30;;
17488;SDS011;8861;52.644;4.734;2024-03-25T10:33:53;5.67;;;3.30;;
17488;SDS011;8861;52.644;4.734;2024-03-25T10:36:19;4.27;;;3.30;;
17488;SDS011;8861;52.644;4.734;2024-03-25T10:38:47;3.33;;;2.47;;
17488;SDS011;8861;52.644;4.734;2024-03-25T10:41:18;6.03;;;2.70;;
17488;SDS011;8861;52.644;4.734;2024-03-25T10:43:46;9.40;;;3.70;;
17488;SDS011;8861;52.644;4.734;2024-03-25T10:46:15;11.57;;;4.37;;
17488;SDS011;8861;52.644;4.734;2024-03-25T10:48:44;10.00;;;4.37;;
17488;SDS011;8861;52.644;4.734;2024-03-25T10:51:17;7.93;;;4.10;;
17488;SDS011;8861;52.644;4.734;2024-03-25T10:53:47;5.93;;;3.40;;
17488;SDS011;8861;52.644;4.734;2024-03-25T10:56:20;10.20;;;4.73;;
17488;SDS011;8861;52.644;4.734;2024-03-25T10:58:47;10.83;;;4.40;;
17488;SDS011;8861;52.644;4.734;2024-03-25T11:01:14;6.13;;;4.17;;
17488;SDS011;8861;52.644;4.734;2024-03-25T11:03:42;11.63;;;5.60;;
17488;SDS011;8861;52.644;4.734;2024-03-25T11:06:09;9.43;;;4.93;;
17488;SDS011;8861;52.644;4.734;2024-03-25T11:08:36;11.77;;;5.47;;
17488;SDS011;8861;52.644;4.734;2024-03-25T11:11:02;12.47;;;5.63;;
17488;SDS011;8861;52.644;4.734;2024-03-25T11:13:30;7.60;;;4.13;;
17488;SDS011;8861;52.644;4.734;2024-03-25T11:15:57;8.00;;;4.30;;
17488;SDS011;8861;52.644;4.734;2024-03-25T11:18:24;13.53;;;5.53;;
17488;SDS011;8861;52.644;4.734;2024-03-25T11:21:00;10.13;;;4.60;;
17488;SDS011;8861;52.644;4.734;2024-03-25T11:23:34;11.30;;;4.90;;
17488;SDS011;8861;52.644;4.734;2024-03-25T11:26:01;10.10;;;5.10;;
17488;SDS011;8861;52.644;4.734;2024-03-25T11:28:29;14.07;;;6.03;;
17488;SDS011;8861;52.644;4.734;2024-03-25T11:30:55;13.33;;;5.97;;
17488;SDS011;8861;52.644;4.734;2024-03-25T11:33:22;9.90;;;5.10;;
17488;SDS011;8861;52.644;4.734;2024-03-25T11:35:49;12.97;;;6.00;;
17488;SDS011;8861;52.644;4.734;2024-03-25T11:38:15;10.63;;;5.37;;
17488;SDS011;8861;52.644;4.734;2024-03-25T11:40:41;9.73;;;5.93;;
17488;SDS011;8861;52.644;4.734;2024-03-25T11:43:10;12.00;;;6.00;;
17488;SDS011;8861;52.644;4.734;2024-03-25T11:45:46;8.83;;;5.40;;
17488;SDS011;8861;52.644;4.734;2024-03-25T11:48:13;14.43;;;6.33;;
17488;SDS011;8861;52.644;4.734;2024-03-25T11:50:40;13.90;;;6.20;;
17488;SDS011;8861;52.644;4.734;2024-03-25T11:53:06;13.47;;;6.03;;
17488;SDS011;8861;52.644;4.734;2024-03-25T11:55:33;15.93;;;6.80;;
17488;SDS011;8861;52.644;4.734;2024-03-25T11:57:59;15.60;;;6.87;;
17488;SDS011;8861;52.644;4.734;2024-03-25T12:00:26;13.40;;;6.47;;
17488;SDS011;8861;52.644;4.734;2024-03-25T12:02:53;11.83;;;6.10;;
17488;SDS011;8861;52.644;4.734;2024-03-25T12:05:20;12.93;;;6.53;;
17488;SDS011;8861;52.644;4.734;2024-03-25T12:07:46;14.00;;;6.20;;
17488;SDS011;8861;52.644;4.734;2024-03-25T12:10:12;10.77;;;5.93;;
17488;SDS011;8861;52.644;4.734;2024-03-25T12:12:56;8.30;;;5.40;;
17488;SDS011;8861;52.644;4.734;2024-03-25T12:15:22;12.27;;;6.20;;
17488;SDS011;8861;52.644;4.734;2024-03-25T12:17:49;11.70;;;5.80;;
17488;SDS011;8861;52.644;4.734;2024-03-25T12:20:17;11.63;;;5.87;;
17488;SDS011;8861;52.644;4.734;2024-03-25T12:22:44;6.97;;;4.57;;
17488;SDS011;8861;52.644;4.734;2024-03-25T12:25:11;9.33;;;4.40;;
17488;SDS011;8861;52.644;4.734;2024-03-25T12:27:37;9.27;;;4.50;;
17488;SDS011;8861;52.644;4.734;2024-03-25T12:30:05;8.83;;;4.70;;
17488;SDS011;8861;52.644;4.734;2024-03-25T12:32:35;8.83;;;4.43;;
17488;SDS011;8861;52.644;4.734;2024-03-25T12:35:03;9.33;;;5.10;;
17488;SDS011;8861;52.644;4.734;2024-03-25T12:37:33;7.53;;;4.73;;
17488;SDS011;8861;52.644;4.734;2024-03-25T12:40:01;10.03;;;4.80;;
17488;SDS011;8861;52.644;4.734;2024-03-25T12:42:27;10.30;;;5.77;;
17488;SDS011;8861;52.644;4.734;2024-03-25T12:44:54;10.03;;;5.80;;
17488;SDS011;8861;52.644;4.734;2024-03-25T12:47:20;12.50;;;5.60;;
17488;SDS011;8861;52.644;4.734;2024-03-25T12:49:46;7.97;;;4.90;;
17488;SDS011;8861;52.644;4.734;2024-03-25T12:52:12;10.13;;;4.70;;
17488;SDS011;8861;52.644;4.734;2024-03-25T12:54:40;8.00;;;4.57;;
17488;SDS011;8861;52.644;4.734;2024-03-25T12:57:06;6.70;;;4.20;;
17488;SDS011;8861;52.644;4.734;2024-03-25T12:59:33;7.17;;;4.60;;
17488;SDS011;8861;52.644;4.734;2024-03-25T13:01:59;8.47;;;5.10;;
17488;SDS011;8861;52.644;4.734;2024-03-25T13:04:26;8.30;;;5.10;;
17488;SDS011;8861;52.644;4.734;2024-03-25T13:06:52;9.27;;;5.70;;
17488;SDS011;8861;52.644;4.734;2024-03-25T13:09:18;7.27;;;4.83;;
17488;SDS011;8861;52.644;4.734;2024-03-25T13:11:46;7.93;;;4.87;;
17488;SDS011;8861;52.644;4.734;2024-03-25T13:14:13;8.30;;;4.93;;
17488;SDS011;8861;52.644;4.734;2024-03-25T13:16:39;10.77;;;4.70;;
17488;SDS011;8861;52.644;4.734;2024-03-25T13:19:05;9.33;;;5.30;;
17488;SDS011;8861;52.644;4.734;2024-03-25T13:21:32;8.43;;;4.77;;
17488;SDS011;8861;52.644;4.734;2024-03-25T13:23:59;8.30;;;4.80;;
17488;SDS011;8861;52.644;4.734;2024-03-25T13:26:25;6.97;;;4.13;;
17488;SDS011;8861;52.644;4.734;2024-03-25T13:28:53;8.90;;;5.63;;
17488;SDS011;8861;52.644;4.734;2024-03-25T13:31:19;8.37;;;4.87;;
17488;SDS011;8861;52.644;4.734;2024-03-25T13:33:48;5.50;;;4.60;;
17488;SDS011;8861;52.644;4.734;2024-03-25T13:36:14;9.80;;;5.77;;
17488;SDS011;8861;52.644;4.734;2024-03-25T13:38:41;8.87;;;5.27;;
17488;SDS011;8861;52.644;4.734;2024-03-25T13:41:07;7.07;;;5.10;;
17488;SDS011;8861;52.644;4.734;2024-03-25T13:43:33;7.23;;;4.77;;
17488;SDS011;8861;52.644;4.734;2024-03-25T13:46:01;7.33;;;4.70;;
17488;SDS011;8861;52.644;4.734;2024-03-25T13:48:27;6.63;;;4.70;;
17488;SDS011;8861;52.644;4.734;2024-03-25T13:50:54;6.97;;;4.20;;
17488;SDS011;8861;52.644;4.734;2024-03-25T13:53:21;7.33;;;4.83;;
17488;SDS011;8861;52.644;4.734;2024-03-25T13:55:47;5.93;;;4.43;;
17488;SDS011;8861;52.644;4.734;2024-03-25T13:58:13;8.80;;;4.60;;
17488;SDS011;8861;52.644;4.734;2024-03-25T14:00:39;7.67;;;5.47;;
17488;SDS011;8861;52.644;4.734;2024-03-25T14:03:07;8.43;;;5.23;;
17488;SDS011;8861;52.644;4.734;2024-03-25T14:05:33;8.23;;;6.20;;
17488;SDS011;8861;52.644;4.734;2024-03-25T14:07:59;10.80;;;7.03;;
17488;SDS011;8861;52.644;4.734;2024-03-25T14:10:25;11.17;;;6.60;;
17488;SDS011;8861;52.644;4.734;2024-03-25T14:12:51;11.93;;;6.27;;
17488;SDS011;8861;52.644;4.734;2024-03-25T14:15:17;7.73;;;5.77;;
17488;SDS011;8861;52.644;4.734;2024-03-25T14:17:43;6.43;;;5.63;;
17488;SDS011;8861;52.644;4.734;2024-03-25T14:20:11;8.30;;;6.30;;
17488;SDS011;8861;52.644;4.734;2024-03-25T14:22:37;6.93;;;5.40;;
17488;SDS011;8861;52.644;4.734;2024-03-25T14:25:04;6.90;;;5.00;;
17488;SDS011;8861;52.644;4.734;2024-03-25T14:27:30;6.93;;;5.50;;
17488;SDS011;8861;52.644;4.734;2024-03-25T14:29:56;7.80;;;6.50;;
17488;SDS011;8861;52.644;4.734;2024-03-25T14:32:22;12.37;;;7.50;;
17488;SDS011;8861;52.644;4.734;2024-03-25T14:34:49;9.03;;;7.20;;
17488;SDS011;8861;52.644;4.734;2024-03-25T14:37:17;11.93;;;7.10;;
17488;SDS011;8861;52.644;4.734;2024-03-25T14:39:43;10.83;;;7.20;;
17488;SDS011;8861;52.644;4.734;2024-03-25T14:42:09;11.47;;;7.93;;
17488;SDS011;8861;52.644;4.734;2024-03-25T14:44:36;12.33;;;7.60;;
17488;SDS011;8861;52.644;4.734;2024-03-25T14:47:02;8.83;;;7.57;;
17488;SDS011;8861;52.644;4.734;2024-03-25T14:49:28;11.50;;;8.27;;
17488;SDS011;8861;52.644;4.734;2024-03-25T14:51:55;10.57;;;7.30;;
17488;SDS011;8861;52.644;4.734;2024-03-25T14:54:22;10.50;;;7.60;;
17488;SDS011;8861;52.644;4.734;2024-03-25T14:56:49;11.67;;;7.73;;